Mount Rainier National Park, WA

4:48 PM PDT on August 21, 2014 (GMT -0700)
Gray Army Air Field | Change Station
CLOSE
Current Station
Airport
Location: Fort Lewis,
Elevation: 302 ft
Nearby Weather Stations

Elev 302 ft 47.08 °N, 122.58 °W | Updated 50 minutes ago

Clear
Clear
71 °F
Feels Like 71 °F
N
9
Wind Variable Wind from West

Today
High -- | Low -- °F
--% Chance of Precip.
Yesterday
High -- | Low -- °F
Precip. -- in
6:12 AM 8:06 PM
Waning Crescent, 11% visible
Pressure 30.00 in
Visibility 10.0 miles
Clouds Clear
Dew Point 52 °F
Humidity 51%
Rainfall 0.00 in
Snow Depth Not available.
UV 5 out of 12
Pollen 3.20 out of 12
Air Quality Not available.
Flu Activity Not available.
METAR KGRF 212258Z AUTO 28008KT 10SM CLR 22/11 A2999 RMK AO2 SLP159 T02180111 PWINO $

More Conditions Fewer Conditions

Pressure 30.00 in
Visibility 10.0 miles
Clouds Clear
Dew Point 52 °F
Humidity 51%
Rainfall 0.00 in
Snow Depth Not available.
UV 5 out of 12
Pollen 3.20 out of 12
Air Quality Not available.
Flu Activity Not available.
METAR KGRF 212258Z AUTO 28008KT 10SM CLR 22/11 A2999 RMK AO2 SLP159 T02180111 PWINO $

More Conditions Fewer Conditions

10-Day Weather Forecast

Almanac

Astronomy

Aug. 21, 2014 Rise Set
Actual Time 6:12 AM PDT 8:06 PM PDT
Civil Twilight 5:40 AM PDT 8:39 PM PDT
Nautical Twilight 5:00 AM PDT 9:18 PM PDT
Astronomical Twilight 4:16 AM PDT 10:02 PM PDT
Moon 2:41 AM PDT 5:44 PM PDT
Length of Visible Light 14h 58m
Length of Day
13h 53m
Tomorrow will be 3m 6s shorter.
Waning Crescent, 11% of the Moon is Illuminated
Today
Waning Crescent
Aug 25
New
Sep 2
First Quarter
Sep 8
Full
Sep 15
Last Quarter

Today's Extremes

State Highs State Lows

Community

WunderPhotos

Upload Photos

1,746,055 photos uploaded!

Nearby

Snow Depth

Station Depth Elevation
White Pass E.S. 0 in 4500 ft
Lone Pine 0 in 3800 ft
Meadows Pass 0 in 3500 ft
Spencer Meadow 0 in 3400 ft
Surprise Lakes 0 in 4250 ft

Earthquake Activity

City Distance Mag. Time & Date
No recent earthquake activity has been reported nearby.
Minimum magnitude displayed is 2.5.

Coastal Water Temperatures

Place Temperature
No Stations Reporting

Nearby Weather Stations